createdAt,value
2023-03-23T00:00:13.376Z,5.6
2023-03-23T00:01:13.395Z,5.6
2023-03-23T00:02:13.385Z,5.6
2023-03-23T00:03:13.403Z,5.6
2023-03-23T00:04:13.442Z,5.6
2023-03-23T00:05:13.451Z,5.6
2023-03-23T00:06:13.413Z,5.6
2023-03-23T00:07:13.448Z,5.6
2023-03-23T00:08:13.384Z,5.6
2023-03-23T00:09:13.418Z,5.6
2023-03-23T00:10:13.410Z,5.6
2023-03-23T00:11:13.442Z,5.6
2023-03-23T00:12:13.446Z,5.6
2023-03-23T00:13:13.400Z,5.6
2023-03-23T00:14:13.414Z,5.6
2023-03-23T00:15:13.413Z,5.1
2023-03-23T00:16:13.394Z,5.1
2023-03-23T00:17:13.418Z,5.1
2023-03-23T00:18:13.404Z,5.1
2023-03-23T00:19:13.412Z,5.1
2023-03-23T00:20:13.414Z,5.1
2023-03-23T00:21:13.413Z,5.1
2023-03-23T00:22:13.428Z,5.1
2023-03-23T00:23:13.430Z,5.1
2023-03-23T00:24:13.415Z,5.1
2023-03-23T00:25:13.460Z,5.1
2023-03-23T00:26:13.419Z,5.1
2023-03-23T00:27:13.447Z,5.1
2023-03-23T00:28:13.456Z,5.1
2023-03-23T00:29:13.408Z,5.1
2023-03-23T00:30:13.422Z,5.1
2023-03-23T00:31:13.424Z,5.1
2023-03-23T00:32:13.456Z,5.1
2023-03-23T00:33:13.421Z,5.1
2023-03-23T00:34:13.415Z,5.1
2023-03-23T00:35:13.429Z,5.1
2023-03-23T00:36:13.421Z,5.1
2023-03-23T00:37:13.418Z,5.1
2023-03-23T00:38:13.468Z,5.1
2023-03-23T00:39:13.431Z,5.1
2023-03-23T00:40:13.409Z,5.1
2023-03-23T00:41:13.459Z,5.1
2023-03-23T00:42:13.420Z,5.1
2023-03-23T00:43:13.465Z,5.1
2023-03-23T00:44:13.426Z,5.1
2023-03-23T00:45:13.403Z,5.1
2023-03-23T00:46:13.424Z,5.1
2023-03-23T00:47:13.421Z,5.1
2023-03-23T00:48:13.407Z,5.1
2023-03-23T00:49:13.453Z,5.1
2023-03-23T00:50:13.421Z,5.1
2023-03-23T00:51:13.425Z,5.1
2023-03-23T00:52:13.424Z,5.1
2023-03-23T00:53:13.422Z,5.1
2023-03-23T00:54:13.435Z,5.1
2023-03-23T00:55:13.476Z,4.8
2023-03-23T00:56:13.396Z,4.8
2023-03-23T00:57:13.407Z,4.8
2023-03-23T00:58:13.461Z,4.8
2023-03-23T00:59:13.435Z,4.8
2023-03-23T01:00:13.466Z,4.8
2023-03-23T01:01:13.501Z,4.8
2023-03-23T01:02:13.400Z,4.8
2023-03-23T01:03:13.421Z,4.8
2023-03-23T01:04:13.422Z,4.8
2023-03-23T01:05:13.437Z,4.8
2023-03-23T01:06:13.403Z,4.8
2023-03-23T01:07:13.429Z,4.8
2023-03-23T01:08:13.453Z,4.8
2023-03-23T01:09:13.424Z,4.8
2023-03-23T01:10:13.411Z,4.8
2023-03-23T01:11:13.406Z,4.8
2023-03-23T01:12:13.401Z,4.8
2023-03-23T01:13:13.404Z,4.8
2023-03-23T01:14:13.452Z,4.8
2023-03-23T01:15:13.431Z,4.8
2023-03-23T01:16:13.426Z,4.8
2023-03-23T01:17:13.402Z,4.8
2023-03-23T01:18:13.398Z,4.8
2023-03-23T01:19:13.422Z,4.8
2023-03-23T01:20:13.476Z,4.4
2023-03-23T01:21:13.408Z,4.4
2023-03-23T01:22:13.424Z,4.4
2023-03-23T01:23:13.414Z,4.4
2023-03-23T01:24:13.419Z,4.4
2023-03-23T01:25:13.468Z,4.4
2023-03-23T01:26:13.435Z,4.4
2023-03-23T01:27:13.401Z,4.4
2023-03-23T01:28:13.417Z,4.4
2023-03-23T01:29:13.441Z,4.4
2023-03-23T01:30:13.478Z,4.4
2023-03-23T01:31:14.610Z,4.4
2023-03-23T01:32:13.425Z,4.4
2023-03-23T01:33:13.424Z,4.4
2023-03-23T01:34:13.446Z,4.4
2023-03-23T01:35:13.470Z,4.4
2023-03-23T01:36:13.421Z,4.4
2023-03-23T01:37:13.448Z,4.4
2023-03-23T01:38:13.416Z,4.4
2023-03-23T01:39:13.438Z,4.4
2023-03-23T01:40:13.436Z,4.4
2023-03-23T01:41:13.449Z,4.4
2023-03-23T01:42:13.431Z,4.4
2023-03-23T01:43:13.442Z,4.4
2023-03-23T01:44:13.442Z,4.4
2023-03-23T01:45:13.446Z,4.4
2023-03-23T01:46:13.488Z,4.4
2023-03-23T01:47:13.441Z,4.4
2023-03-23T01:48:13.486Z,4.4
2023-03-23T01:49:13.438Z,4.4
2023-03-23T01:50:13.472Z,4.4
2023-03-23T01:51:13.446Z,4.4
2023-03-23T01:52:13.431Z,4.4
2023-03-23T01:53:13.442Z,4.4
2023-03-23T01:54:13.445Z,4.4
2023-03-23T01:55:13.436Z,4.4
2023-03-23T01:56:13.441Z,4.4
2023-03-23T01:57:13.422Z,4.4
2023-03-23T01:58:13.491Z,4.4
2023-03-23T01:59:13.456Z,4.4
2023-03-23T02:00:13.501Z,4.4
2023-03-23T02:01:13.448Z,4.4
2023-03-23T02:02:13.453Z,4.4
2023-03-23T02:03:13.422Z,4.4
2023-03-23T02:04:13.450Z,4.4
2023-03-23T02:05:13.453Z,4.4
2023-03-23T02:06:13.425Z,4.4
2023-03-23T02:07:13.462Z,4.4
2023-03-23T02:08:13.425Z,4.4
2023-03-23T02:09:13.441Z,4.4
2023-03-23T02:10:13.439Z,4.4
2023-03-23T02:11:13.469Z,4.4
2023-03-23T02:12:13.450Z,4.4
2023-03-23T02:13:13.427Z,4.4
2023-03-23T02:14:13.435Z,4.4
2023-03-23T02:15:13.426Z,4.4
2023-03-23T02:16:13.454Z,4.4
2023-03-23T02:17:13.504Z,4.3
2023-03-23T02:18:13.427Z,4.2
2023-03-23T02:19:13.448Z,4.2
2023-03-23T02:20:13.438Z,4.2
2023-03-23T02:21:13.671Z,4.2
2023-03-23T02:22:13.429Z,4.2
2023-03-23T02:23:13.491Z,4.2
2023-03-23T02:24:13.422Z,4.2
2023-03-23T02:25:13.433Z,4.2
2023-03-23T02:26:13.452Z,4.2
2023-03-23T02:27:13.430Z,4.2
2023-03-23T02:28:13.600Z,4.2
2023-03-23T02:29:13.450Z,4.2
2023-03-23T02:30:13.435Z,4.2
2023-03-23T02:31:13.438Z,4.2
2023-03-23T02:32:13.454Z,4.2
2023-03-23T02:33:13.446Z,4.2
2023-03-23T02:34:13.571Z,4.2
2023-03-23T02:35:13.426Z,4.2
2023-03-23T02:36:13.428Z,4.2
2023-03-23T02:37:13.492Z,4.2
2023-03-23T02:38:13.445Z,4.2
2023-03-23T02:39:13.457Z,4.2
2023-03-23T02:40:13.444Z,4.2
2023-03-23T02:41:13.435Z,4.2
2023-03-23T02:42:15.628Z,4.2
2023-03-23T02:43:13.474Z,4.2
2023-03-23T02:44:13.438Z,4.2
2023-03-23T02:45:13.436Z,4.2
2023-03-23T02:46:13.456Z,4.2
2023-03-23T02:47:13.441Z,4.2
2023-03-23T02:48:13.439Z,4.2
2023-03-23T02:49:13.438Z,4.2
2023-03-23T02:50:13.474Z,4.2
2023-03-23T02:51:13.437Z,4.2
2023-03-23T02:52:13.468Z,4.2
2023-03-23T02:53:13.468Z,4.2
2023-03-23T02:54:13.502Z,4.2
2023-03-23T02:55:13.452Z,4.2
2023-03-23T02:56:13.441Z,4.2
2023-03-23T02:57:13.436Z,4.2
2023-03-23T02:58:13.443Z,3.7
2023-03-23T02:59:13.454Z,3.7
2023-03-23T03:00:13.475Z,3.7
2023-03-23T03:01:13.438Z,3.7
2023-03-23T03:02:13.440Z,3.7
2023-03-23T03:03:13.460Z,3.7
2023-03-23T03:04:13.441Z,3.7
2023-03-23T03:05:13.493Z,3.7
2023-03-23T03:06:13.463Z,3.7
2023-03-23T03:07:13.536Z,3.7
2023-03-23T03:08:13.450Z,3.7
2023-03-23T03:09:13.475Z,3.7
2023-03-23T03:10:13.451Z,3.7
2023-03-23T03:11:13.457Z,3.7
2023-03-23T03:12:13.471Z,3.7
2023-03-23T03:13:13.496Z,3.7
2023-03-23T03:14:13.465Z,3.7
2023-03-23T03:15:13.442Z,3.7
2023-03-23T03:16:13.452Z,3.7
2023-03-23T03:17:13.443Z,3.7
2023-03-23T03:18:13.467Z,3.7
2023-03-23T03:19:13.511Z,3.7
2023-03-23T03:20:13.459Z,3.7
2023-03-23T03:21:13.439Z,3.7
2023-03-23T03:22:13.438Z,3.7
2023-03-23T03:23:13.482Z,3.7
2023-03-23T03:24:13.467Z,3.7
2023-03-23T03:25:21.453Z,3.7
2023-03-23T03:26:13.449Z,3.7
2023-03-23T03:27:13.446Z,3.7
2023-03-23T03:28:13.451Z,3.7
2023-03-23T03:29:13.446Z,3.7
2023-03-23T03:30:13.520Z,3.7
2023-03-23T03:31:13.444Z,3.7
2023-03-23T03:32:13.446Z,3.7
2023-03-23T03:33:13.466Z,3.7
2023-03-23T03:34:13.446Z,3.7
2023-03-23T03:35:13.442Z,3.7
2023-03-23T03:36:13.560Z,3.7
2023-03-23T03:37:13.443Z,3.7
2023-03-23T03:38:13.465Z,3.7
2023-03-23T03:39:13.466Z,3.7
2023-03-23T03:40:13.446Z,3.7
2023-03-23T03:41:13.496Z,3.7
2023-03-23T03:42:13.469Z,3.7
2023-03-23T03:43:13.443Z,3.7
2023-03-23T03:44:13.451Z,3.7
2023-03-23T03:45:13.470Z,3.7
2023-03-23T03:46:13.463Z,3.7
2023-03-23T03:47:13.491Z,3.7
2023-03-23T03:48:13.496Z,3.7
2023-03-23T03:49:13.470Z,3.7
2023-03-23T03:50:13.498Z,3.7
2023-03-23T03:51:13.478Z,3.7
2023-03-23T03:52:13.474Z,3.7
2023-03-23T03:53:16.501Z,3.7
2023-03-23T03:54:13.459Z,3.7
2023-03-23T03:55:13.485Z,3.7
2023-03-23T03:56:13.491Z,3.7
2023-03-23T03:57:13.462Z,3.7
2023-03-23T03:58:13.476Z,3.7
2023-03-23T03:59:21.077Z,3.7
2023-03-23T04:00:13.452Z,3.7
2023-03-23T04:01:13.493Z,3.7
2023-03-23T04:02:13.490Z,3.7
2023-03-23T04:03:13.504Z,3.7
2023-03-23T04:04:13.467Z,3.7
2023-03-23T04:05:13.499Z,3.7
2023-03-23T04:06:13.487Z,3.7
2023-03-23T04:07:13.474Z,3.7
2023-03-23T04:08:13.497Z,3.7
2023-03-23T04:09:13.480Z,3.7
2023-03-23T04:10:13.490Z,3.5
2023-03-23T04:11:32.772Z,3.5
2023-03-23T04:12:13.510Z,3.5
2023-03-23T04:13:13.501Z,3.5
2023-03-23T04:14:13.459Z,3.5
2023-03-23T04:15:13.510Z,3.5
2023-03-23T04:16:13.462Z,3.5
2023-03-23T04:17:13.467Z,3.5
2023-03-23T04:18:13.490Z,3.5
2023-03-23T04:19:13.498Z,3.5
2023-03-23T04:20:13.479Z,3.5
2023-03-23T04:21:13.469Z,3.5
2023-03-23T04:22:13.459Z,3.5
2023-03-23T04:23:13.488Z,3.5
2023-03-23T04:24:23.068Z,3.5
2023-03-23T04:25:13.485Z,3.5
2023-03-23T04:26:13.537Z,3.5
2023-03-23T04:27:13.465Z,3.5
2023-03-23T04:28:13.507Z,3.5
2023-03-23T04:29:13.472Z,3.5
2023-03-23T04:30:13.486Z,3.5
2023-03-23T04:31:13.473Z,3.5
2023-03-23T04:32:13.466Z,3.5
2023-03-23T04:33:13.497Z,3.5
2023-03-23T04:34:13.523Z,3.5
2023-03-23T04:35:14.077Z,3.5
2023-03-23T04:36:13.547Z,3.5
2023-03-23T04:37:13.469Z,3.5
2023-03-23T04:38:13.464Z,3.5
2023-03-23T04:39:13.491Z,3.2
2023-03-23T04:40:13.487Z,3.2
2023-03-23T04:41:13.462Z,3.2
2023-03-23T04:42:13.466Z,3.2
2023-03-23T04:43:13.463Z,3.2
2023-03-23T04:44:13.462Z,3.2
2023-03-23T04:45:13.533Z,3.2
2023-03-23T04:46:13.472Z,3.2
2023-03-23T04:47:13.468Z,3.2
2023-03-23T04:48:13.481Z,3.2
2023-03-23T04:49:13.478Z,3.2
2023-03-23T04:50:13.490Z,3.2
2023-03-23T04:51:13.504Z,3.2
2023-03-23T04:52:13.466Z,3.2
2023-03-23T04:53:13.482Z,3.2
2023-03-23T04:54:13.495Z,3.2
2023-03-23T04:55:13.493Z,3.2
2023-03-23T04:56:13.534Z,3.2
2023-03-23T04:57:13.471Z,3.2
2023-03-23T04:58:13.497Z,3.2
2023-03-23T04:59:13.501Z,3.2
2023-03-23T05:00:13.500Z,3.2
2023-03-23T05:01:13.542Z,3.2
2023-03-23T05:02:14.721Z,3.2
2023-03-23T05:03:13.488Z,3.2
2023-03-23T05:04:13.474Z,3.2
2023-03-23T05:05:13.487Z,3.2
2023-03-23T05:06:13.519Z,3.2
2023-03-23T05:07:13.525Z,3.2
2023-03-23T05:08:13.536Z,3.1
2023-03-23T05:09:13.521Z,3.1
2023-03-23T05:10:13.601Z,3.1
2023-03-23T05:11:13.498Z,3.1
2023-03-23T05:12:13.524Z,3.1
2023-03-23T05:13:13.501Z,3.1
2023-03-23T05:14:13.506Z,3.1
2023-03-23T05:15:13.537Z,3.1
2023-03-23T05:16:13.538Z,3.1
2023-03-23T05:17:15.542Z,3.1
2023-03-23T05:18:13.527Z,3.1
2023-03-23T05:19:13.513Z,3.1
2023-03-23T05:20:13.512Z,3.1
2023-03-23T05:21:13.602Z,3.1
2023-03-23T05:22:13.502Z,3.1
2023-03-23T05:23:13.508Z,3.1
2023-03-23T05:24:13.501Z,3.1
2023-03-23T05:25:13.511Z,3.6
2023-03-23T05:26:13.518Z,3.6
2023-03-23T05:27:13.550Z,3.6
2023-03-23T05:28:13.523Z,3.6
2023-03-23T05:29:13.525Z,3.6
2023-03-23T05:30:13.498Z,3.6
2023-03-23T05:31:13.515Z,3.6
2023-03-23T05:32:13.506Z,3.6
2023-03-23T05:33:13.547Z,4.1
2023-03-23T05:34:13.496Z,4.1
2023-03-23T05:35:13.507Z,4.1
2023-03-23T05:36:13.582Z,4.1
2023-03-23T05:37:13.510Z,4.1
2023-03-23T05:38:13.532Z,4.1
2023-03-23T05:39:13.553Z,4.1
2023-03-23T05:40:13.541Z,4.7
2023-03-23T05:41:13.505Z,4.7
2023-03-23T05:42:13.513Z,4.7
2023-03-23T05:43:13.522Z,4.7
2023-03-23T05:44:13.523Z,4.7
2023-03-23T05:45:13.494Z,4.7
2023-03-23T05:46:13.496Z,5.2
2023-03-23T05:47:13.506Z,5.2
2023-03-23T05:48:13.533Z,5.2
2023-03-23T05:49:13.519Z,5.2
2023-03-23T05:50:13.563Z,5.2
2023-03-23T05:51:13.500Z,5.7
2023-03-23T05:52:13.499Z,5.7
2023-03-23T05:53:13.566Z,5.7
2023-03-23T05:54:13.494Z,5.7
2023-03-23T05:55:13.517Z,5.7
2023-03-23T05:56:13.530Z,6.2
2023-03-23T05:57:13.522Z,6.2
2023-03-23T05:58:13.505Z,6.2
2023-03-23T05:59:13.518Z,6.2
2023-03-23T06:00:13.521Z,6.2
2023-03-23T06:01:13.524Z,6.6
2023-03-23T06:02:13.530Z,6.6
2023-03-23T06:03:13.525Z,6.8
2023-03-23T06:04:13.494Z,6.8
2023-03-23T06:05:13.498Z,6.8
2023-03-23T06:06:13.517Z,6.8
2023-03-23T06:07:13.497Z,6.8
2023-03-23T06:08:13.542Z,7.3
2023-03-23T06:09:13.551Z,7.3
2023-03-23T06:10:13.511Z,7.3
2023-03-23T06:11:13.558Z,7.3
2023-03-23T06:12:13.506Z,7.3
2023-03-23T06:13:13.522Z,7.8
2023-03-23T06:14:13.511Z,7.8
2023-03-23T06:15:13.529Z,7.8
2023-03-23T06:16:13.502Z,7.8
2023-03-23T06:17:13.522Z,7.8
2023-03-23T06:18:13.511Z,7.8
2023-03-23T06:19:13.544Z,8.3
2023-03-23T06:20:13.537Z,8.3
2023-03-23T06:21:18.551Z,8.3
2023-03-23T06:22:13.545Z,8.3
2023-03-23T06:23:13.498Z,8.3
2023-03-23T06:24:13.579Z,8.3
2023-03-23T06:25:13.563Z,8.9
2023-03-23T06:26:13.521Z,8.9
2023-03-23T06:27:15.136Z,8.9
2023-03-23T06:28:13.502Z,8.9
2023-03-23T06:29:13.526Z,8.9
2023-03-23T06:30:13.507Z,8.9
2023-03-23T06:31:13.529Z,8.9
2023-03-23T06:32:13.502Z,8.9
2023-03-23T06:33:13.553Z,9.4
2023-03-23T06:34:13.533Z,9.4
2023-03-23T06:35:13.508Z,9.4
2023-03-23T06:36:13.581Z,9.4
2023-03-23T06:37:13.514Z,9.4
2023-03-23T06:38:13.525Z,9.9
2023-03-23T06:39:13.511Z,9.9
2023-03-23T06:40:13.521Z,9.9
2023-03-23T06:41:13.547Z,9.9
2023-03-23T06:42:13.527Z,9.9
2023-03-23T06:43:13.540Z,9.9
2023-03-23T06:44:13.564Z,9.9
2023-03-23T06:45:13.532Z,10.4
2023-03-23T06:46:13.593Z,10.4
2023-03-23T06:47:13.524Z,10.4
2023-03-23T06:48:13.549Z,10.4
2023-03-23T06:49:13.531Z,10.4
2023-03-23T06:50:13.532Z,11
2023-03-23T06:51:13.540Z,11
2023-03-23T06:52:13.556Z,11
2023-03-23T06:53:13.541Z,11
2023-03-23T06:54:13.541Z,11.3
2023-03-23T06:55:13.550Z,11.3
2023-03-23T06:56:13.547Z,11.3
2023-03-23T06:57:13.531Z,11.5
2023-03-23T06:58:13.622Z,11.5
2023-03-23T06:59:13.543Z,11.5
2023-03-23T07:00:13.529Z,11.5
2023-03-23T07:01:13.542Z,11.5
2023-03-23T07:02:13.534Z,12.1
2023-03-23T07:03:13.530Z,12.1
2023-03-23T07:04:13.600Z,12.1
2023-03-23T07:05:13.543Z,12.1
2023-03-23T07:06:13.520Z,12.1
2023-03-23T07:07:13.538Z,12.1
2023-03-23T07:08:13.527Z,12.1
2023-03-23T07:09:13.543Z,12.1
2023-03-23T07:10:13.553Z,12.1
2023-03-23T07:11:13.541Z,12.1
2023-03-23T07:12:13.534Z,12.6
2023-03-23T07:13:13.523Z,12.6
2023-03-23T07:14:13.525Z,12.6
2023-03-23T07:15:13.574Z,12.6
2023-03-23T07:16:13.548Z,12.6
2023-03-23T07:17:13.528Z,12.6
2023-03-23T07:18:13.526Z,13.1
2023-03-23T07:19:13.543Z,13.1
2023-03-23T07:20:13.548Z,13.1
2023-03-23T07:21:15.577Z,13.1
2023-03-23T07:22:13.523Z,13.1
2023-03-23T07:23:13.554Z,13.1
2023-03-23T07:24:13.786Z,13.1
2023-03-23T07:25:13.525Z,13.1
2023-03-23T07:26:13.561Z,13.1
2023-03-23T07:27:13.594Z,13.6
2023-03-23T07:28:13.536Z,13.6
2023-03-23T07:29:13.555Z,13.6
2023-03-23T07:30:13.526Z,13.6
2023-03-23T07:31:13.539Z,13.6
2023-03-23T07:32:13.544Z,13.6
2023-03-23T07:33:13.562Z,13.6
2023-03-23T07:34:13.556Z,13.6
2023-03-23T07:35:13.532Z,13.6
2023-03-23T07:36:13.552Z,13.6
2023-03-23T07:37:13.730Z,13.6
2023-03-23T07:38:13.545Z,13.6
2023-03-23T07:39:13.540Z,14.1
2023-03-23T07:40:13.544Z,14.1
2023-03-23T07:41:13.554Z,14.1
2023-03-23T07:42:13.537Z,14.1
2023-03-23T07:43:13.538Z,14.1
2023-03-23T07:44:13.555Z,14.1
2023-03-23T07:45:13.553Z,14.1
2023-03-23T07:46:13.575Z,14.1
2023-03-23T07:47:13.557Z,14.1
2023-03-23T07:48:21.136Z,14.1
2023-03-23T07:49:13.559Z,14.6
2023-03-23T07:50:13.572Z,14.6
2023-03-23T07:51:13.532Z,14.6
2023-03-23T07:52:13.612Z,14.6
2023-03-23T07:53:13.557Z,14.6
2023-03-23T07:54:13.566Z,14.8
2023-03-23T07:55:13.561Z,14.8
2023-03-23T07:56:13.563Z,14.8
2023-03-23T07:57:13.547Z,14.8
2023-03-23T07:58:13.567Z,14.8
2023-03-23T07:59:13.562Z,14.8
2023-03-23T08:00:13.567Z,14.8
2023-03-23T08:01:13.617Z,14.8
2023-03-23T08:02:13.549Z,14.8
2023-03-23T08:03:13.553Z,15.2
2023-03-23T08:04:13.583Z,15.2
2023-03-23T08:05:13.557Z,15.2
2023-03-23T08:06:13.624Z,15.2
2023-03-23T08:07:13.614Z,15.2
2023-03-23T08:08:13.571Z,15.2
2023-03-23T08:09:13.542Z,15.2
2023-03-23T08:10:13.561Z,15.2
2023-03-23T08:11:13.540Z,15.2
2023-03-23T08:12:13.548Z,15.7
2023-03-23T08:13:13.590Z,15.7
2023-03-23T08:14:15.877Z,15.7
2023-03-23T08:15:13.562Z,15.7
2023-03-23T08:16:13.555Z,15.7
2023-03-23T08:17:13.586Z,15.7
2023-03-23T08:18:13.561Z,15.7
2023-03-23T08:19:13.577Z,15.7
2023-03-23T08:20:13.536Z,15.7
2023-03-23T08:21:13.537Z,15.7
2023-03-23T08:22:13.560Z,16.2
2023-03-23T08:23:13.540Z,16.2
2023-03-23T08:24:13.621Z,16.2
2023-03-23T08:25:13.546Z,16.2
2023-03-23T08:26:13.544Z,16.2
2023-03-23T08:27:13.545Z,16.2
2023-03-23T08:28:13.584Z,16.2
2023-03-23T08:29:13.563Z,16.2
2023-03-23T08:30:13.560Z,16.2
2023-03-23T08:31:13.541Z,16.2
2023-03-23T08:32:13.539Z,16.2
2023-03-23T08:33:13.540Z,16.2
2023-03-23T08:34:13.888Z,16.7
2023-03-23T08:35:13.570Z,16.7
2023-03-23T08:36:13.620Z,16.7
2023-03-23T08:37:13.570Z,16.7
2023-03-23T08:38:13.591Z,16.7
2023-03-23T08:39:13.568Z,16.7
2023-03-23T08:40:13.663Z,16.7
2023-03-23T08:41:13.549Z,16.7
2023-03-23T08:42:13.618Z,16.7
2023-03-23T08:43:13.542Z,16.7
2023-03-23T08:44:13.572Z,16.7
2023-03-23T08:45:13.553Z,16.7
2023-03-23T08:46:13.593Z,16.7
2023-03-23T08:47:13.565Z,17.2
2023-03-23T08:48:13.623Z,17.2
2023-03-23T08:49:13.544Z,17.2
2023-03-23T08:50:13.578Z,17.2
2023-03-23T08:51:13.581Z,17.2
2023-03-23T08:52:13.566Z,17.2
2023-03-23T08:53:13.555Z,17.2
2023-03-23T08:54:13.576Z,17.3
2023-03-23T08:55:13.569Z,17.3
2023-03-23T08:56:13.566Z,17.3
2023-03-23T08:57:13.580Z,17.3
2023-03-23T08:58:13.638Z,17.3
2023-03-23T08:59:13.572Z,17.3
2023-03-23T09:00:13.557Z,17.3
2023-03-23T09:01:13.576Z,17.3
2023-03-23T09:02:13.563Z,17.3
2023-03-23T09:03:13.559Z,17.3
2023-03-23T09:04:13.592Z,17.3
2023-03-23T09:05:13.568Z,17.3
2023-03-23T09:06:13.577Z,17.3
2023-03-23T09:07:13.583Z,17.6
2023-03-23T09:08:13.573Z,17.6
2023-03-23T09:09:13.569Z,17.6
2023-03-23T09:10:13.590Z,17.6
2023-03-23T09:11:13.567Z,17.6
2023-03-23T09:12:13.583Z,17.6
2023-03-23T09:13:13.571Z,17.6
2023-03-23T09:14:13.564Z,17.6
2023-03-23T09:15:14.982Z,17.6
2023-03-23T09:16:13.571Z,17.6
2023-03-23T09:17:13.553Z,17.6
2023-03-23T09:18:13.557Z,17.6
2023-03-23T09:19:13.567Z,17.6
2023-03-23T09:20:13.597Z,17.6
2023-03-23T09:21:18.922Z,17.6
2023-03-23T09:22:13.580Z,17.6
2023-03-23T09:23:13.574Z,17.6
2023-03-23T09:24:13.547Z,17.6
2023-03-23T09:25:13.556Z,17.6
2023-03-23T09:26:13.578Z,17.6
2023-03-23T09:27:13.552Z,17.6
2023-03-23T09:28:13.580Z,17.6
2023-03-23T09:29:13.556Z,17.6
2023-03-23T09:30:13.571Z,18.1
2023-03-23T09:31:13.642Z,18.1
2023-03-23T09:32:13.574Z,18.1
2023-03-23T09:33:13.583Z,18.1
2023-03-23T09:34:13.552Z,18.1
2023-03-23T09:35:13.595Z,18.1
2023-03-23T09:36:13.589Z,18.1
2023-03-23T09:37:13.576Z,18.1
2023-03-23T09:38:13.587Z,18.1
2023-03-23T09:39:13.571Z,18.1
2023-03-23T09:40:13.563Z,18.1
2023-03-23T09:41:13.569Z,18.1
2023-03-23T09:42:13.586Z,18.1
2023-03-23T09:43:13.607Z,18.7
2023-03-23T09:44:13.571Z,18.7
2023-03-23T09:45:13.622Z,18.7
2023-03-23T09:46:13.607Z,18.7
2023-03-23T09:47:13.586Z,18.7
2023-03-23T09:48:13.661Z,18.7
2023-03-23T09:49:13.662Z,18.7
2023-03-23T09:50:13.594Z,18.7
2023-03-23T09:51:13.605Z,18.7
2023-03-23T09:52:13.592Z,18.7
2023-03-23T09:53:13.575Z,18.7
2023-03-23T09:54:13.609Z,18.7
2023-03-23T09:55:13.591Z,18.7
2023-03-23T09:56:13.576Z,18.7
2023-03-23T09:57:13.592Z,18.7
2023-03-23T09:58:13.608Z,18.7
2023-03-23T09:59:13.594Z,18.7
2023-03-23T10:00:13.654Z,18.7
2023-03-23T10:01:13.610Z,18.7
2023-03-23T10:02:13.590Z,18.7
2023-03-23T10:03:13.568Z,18.7
2023-03-23T10:04:13.591Z,18.7
2023-03-23T10:05:13.581Z,18.7
2023-03-23T10:06:13.605Z,18.7
2023-03-23T10:07:13.580Z,18.7
2023-03-23T10:08:13.611Z,18.7
2023-03-23T10:09:13.600Z,18.7
2023-03-23T10:10:13.596Z,18.7
2023-03-23T10:11:13.588Z,18.7
2023-03-23T10:12:13.598Z,18.7
2023-03-23T10:13:13.573Z,18.7
2023-03-23T10:14:13.589Z,18.7
2023-03-23T10:15:13.582Z,18.7
2023-03-23T10:16:13.585Z,18.7
2023-03-23T10:17:13.661Z,18.7
2023-03-23T10:18:13.586Z,18.7
2023-03-23T10:19:13.608Z,18.7
2023-03-23T10:20:13.576Z,18.7
2023-03-23T10:21:13.608Z,18.7
2023-03-23T10:22:13.586Z,18.7
2023-03-23T10:23:13.618Z,18.7
2023-03-23T10:24:13.602Z,18.7
2023-03-23T10:25:13.596Z,18.7
2023-03-23T10:26:13.593Z,18.7
2023-03-23T10:27:13.653Z,18.6
2023-03-23T10:28:13.612Z,18.6
2023-03-23T10:29:13.597Z,18.6
2023-03-23T10:30:14.611Z,18.6
2023-03-23T10:31:13.581Z,18.6
2023-03-23T10:32:14.114Z,18.6
2023-03-23T10:33:13.607Z,18.6
2023-03-23T10:34:13.606Z,18.6
2023-03-23T10:35:13.612Z,18.6
2023-03-23T10:36:13.624Z,18.6
2023-03-23T10:37:13.598Z,18.6
2023-03-23T10:38:13.636Z,18.6
2023-03-23T10:39:13.604Z,18.6
2023-03-23T10:40:13.591Z,18.6
2023-03-23T10:41:13.591Z,18.8
2023-03-23T10:42:13.576Z,18.8
2023-03-23T10:43:13.601Z,18.8
2023-03-23T10:44:13.582Z,18.8
2023-03-23T10:45:13.616Z,18.8
2023-03-23T10:46:22.908Z,18.8
2023-03-23T10:47:13.570Z,18.8
2023-03-23T10:48:13.583Z,18.8
2023-03-23T10:49:13.602Z,18.8
2023-03-23T10:50:13.669Z,18.8
2023-03-23T10:51:13.602Z,18.8
2023-03-23T10:52:13.593Z,18.8
2023-03-23T10:53:13.599Z,19.1
2023-03-23T10:54:13.584Z,19.1
2023-03-23T10:55:13.592Z,19.1
2023-03-23T10:56:13.622Z,19.1
2023-03-23T10:57:13.601Z,19.1
2023-03-23T10:58:13.595Z,19.1
2023-03-23T10:59:13.574Z,19.1
2023-03-23T11:00:13.606Z,19.1
2023-03-23T11:01:13.600Z,19.1
2023-03-23T11:02:24.122Z,19.1
2023-03-23T11:03:13.582Z,19.1
2023-03-23T11:04:13.576Z,19.1
2023-03-23T11:05:20.001Z,19.1
2023-03-23T11:06:13.586Z,19.1
2023-03-23T11:07:13.664Z,19.1
2023-03-23T11:08:13.592Z,19.1
2023-03-23T11:09:13.608Z,19.1
2023-03-23T11:10:13.606Z,19.1
2023-03-23T11:11:13.604Z,19.1
2023-03-23T11:12:13.584Z,19.1
2023-03-23T11:13:13.631Z,19.1
2023-03-23T11:14:13.596Z,19.1
2023-03-23T11:15:13.608Z,19.1
2023-03-23T11:16:13.641Z,19.1
2023-03-23T11:17:15.939Z,19.1
2023-03-23T11:18:13.637Z,19.1
2023-03-23T11:19:13.598Z,19.1
2023-03-23T11:20:13.601Z,19.1
2023-03-23T11:21:13.678Z,19.1
2023-03-23T11:22:13.585Z,19.1
2023-03-23T11:23:13.603Z,19.1
2023-03-23T11:24:13.616Z,19.1
2023-03-23T11:25:14.450Z,19.1
2023-03-23T11:26:13.608Z,19.1
2023-03-23T11:27:13.661Z,19.1
2023-03-23T11:28:13.621Z,19.1
2023-03-23T11:29:13.618Z,19.1
2023-03-23T11:30:13.618Z,19.1
2023-03-23T11:31:13.592Z,19.1
2023-03-23T11:32:15.626Z,19.1
2023-03-23T11:33:13.623Z,19.1
2023-03-23T11:34:13.614Z,19.1
2023-03-23T11:35:16.295Z,19.1
2023-03-23T11:36:13.644Z,19.1
2023-03-23T11:37:13.742Z,19.4
2023-03-23T11:38:13.670Z,19.4
2023-03-23T11:39:13.624Z,19.4
2023-03-23T11:40:13.630Z,19.4
2023-03-23T11:41:13.610Z,19.4
2023-03-23T11:42:13.614Z,19.4
2023-03-23T11:43:13.627Z,19.4
2023-03-23T11:44:13.618Z,19.4
2023-03-23T11:45:13.608Z,19.4
2023-03-23T11:46:13.629Z,19.4
2023-03-23T11:47:13.650Z,19.4
2023-03-23T11:48:13.707Z,19.4
2023-03-23T11:49:23.046Z,19.3
2023-03-23T11:50:13.624Z,19.3
2023-03-23T11:51:13.639Z,19.3
2023-03-23T11:52:13.621Z,19.3
2023-03-23T11:53:13.604Z,19.3
2023-03-23T11:54:13.626Z,19.3
2023-03-23T11:55:13.647Z,19.3
2023-03-23T11:56:13.627Z,19.3
2023-03-23T11:57:13.631Z,19.3
2023-03-23T11:58:13.621Z,19.3
2023-03-23T11:59:13.622Z,19.3
2023-03-23T12:00:13.614Z,19.9
2023-03-23T12:01:13.633Z,19.9
2023-03-23T12:02:17.258Z,19.9
2023-03-23T12:03:13.626Z,19.9
2023-03-23T12:04:13.636Z,19.9
2023-03-23T12:05:13.643Z,19.9
2023-03-23T12:06:13.634Z,19.9
2023-03-23T12:07:13.629Z,19.9
2023-03-23T12:08:13.639Z,19.9
2023-03-23T12:09:13.668Z,19.9
2023-03-23T12:10:15.989Z,19.9
2023-03-23T12:11:13.629Z,19.9
2023-03-23T12:12:13.628Z,19.9
2023-03-23T12:13:16.051Z,19.9
2023-03-23T12:14:13.632Z,19.9
2023-03-23T12:15:13.619Z,19.9
2023-03-23T12:16:13.608Z,19.9
2023-03-23T12:17:13.632Z,19.9
2023-03-23T12:18:13.636Z,19.9
2023-03-23T12:19:13.673Z,19.9
2023-03-23T12:20:13.619Z,19.9
2023-03-23T12:21:14.481Z,19.9
2023-03-23T12:22:13.624Z,19.9
2023-03-23T12:23:13.624Z,19.9
2023-03-23T12:24:13.663Z,19.9
2023-03-23T12:25:13.634Z,19.9
2023-03-23T12:26:13.619Z,19.9
2023-03-23T12:27:13.628Z,19.9
2023-03-23T12:28:13.622Z,19.9
2023-03-23T12:29:13.642Z,19.9
2023-03-23T12:30:13.640Z,20.1
2023-03-23T12:31:13.623Z,20.1
2023-03-23T12:32:13.696Z,20.1
2023-03-23T12:33:13.623Z,20.1
2023-03-23T12:34:13.638Z,20.1
2023-03-23T12:35:13.678Z,20.1
2023-03-23T12:36:13.660Z,20.1
2023-03-23T12:37:13.652Z,20.1
2023-03-23T12:38:13.655Z,20.1
2023-03-23T12:39:13.660Z,20.1
2023-03-23T12:40:13.617Z,20.1
2023-03-23T12:41:13.705Z,20.1
2023-03-23T12:42:13.654Z,20.1
2023-03-23T12:43:13.660Z,20.1
2023-03-23T12:44:13.693Z,20.1
2023-03-23T12:45:13.646Z,20.1
2023-03-23T12:46:13.644Z,20.1
2023-03-23T12:47:13.661Z,20.1
2023-03-23T12:48:13.621Z,20.1
2023-03-23T12:49:13.638Z,20.1
2023-03-23T12:50:13.692Z,20.1
2023-03-23T12:51:13.646Z,20.1
2023-03-23T12:52:13.689Z,20.1
2023-03-23T12:53:13.639Z,20.1
2023-03-23T12:54:13.624Z,20.1
2023-03-23T12:55:13.647Z,20.1
2023-03-23T12:56:13.635Z,20.1
2023-03-23T12:57:13.657Z,20.1
2023-03-23T12:58:13.690Z,20.1
2023-03-23T12:59:13.649Z,20.1
2023-03-23T13:00:13.624Z,20.1
2023-03-23T13:01:13.688Z,20.1
2023-03-23T13:02:13.657Z,20.6
2023-03-23T13:03:13.662Z,20.6
2023-03-23T13:04:13.650Z,20.6
2023-03-23T13:05:13.702Z,20.6
2023-03-23T13:06:13.642Z,20.6
2023-03-23T13:07:13.636Z,20.6
2023-03-23T13:08:13.653Z,20.6
2023-03-23T13:09:13.648Z,20.6
2023-03-23T13:10:13.661Z,20.6
2023-03-23T13:11:13.659Z,20.6
2023-03-23T13:12:13.659Z,20.6
2023-03-23T13:13:13.690Z,20.6
2023-03-23T13:14:13.640Z,20.6
2023-03-23T13:15:13.664Z,20.6
2023-03-23T13:16:13.747Z,20.6
2023-03-23T13:17:13.648Z,20.6
2023-03-23T13:18:13.651Z,20.6
2023-03-23T13:19:13.645Z,20.6
2023-03-23T13:20:13.668Z,20.6
2023-03-23T13:21:13.731Z,20.6
2023-03-23T13:22:13.656Z,20.6
2023-03-23T13:23:13.658Z,20.6
2023-03-23T13:24:13.654Z,20.6
2023-03-23T13:25:13.655Z,20.5
2023-03-23T13:26:13.664Z,20.5
2023-03-23T13:27:13.689Z,20.5
2023-03-23T13:28:13.695Z,20.5
2023-03-23T13:29:13.668Z,20.5
2023-03-23T13:30:13.656Z,20.5
2023-03-23T13:31:13.682Z,20.5
2023-03-23T13:32:13.696Z,20.5